createdAt,value
2023-01-31T00:03:17.829Z,98886.72
2023-01-31T00:08:20.393Z,98886.47
2023-01-31T00:13:23.014Z,98885.16
2023-01-31T00:18:26.442Z,98884.72
2023-01-31T00:23:28.818Z,98874.66
2023-01-31T00:28:31.223Z,98890.44
2023-01-31T00:33:35.185Z,98872.19
2023-01-31T00:38:38.884Z,98886.25
2023-01-31T00:43:41.376Z,98866.94
2023-01-31T00:48:46.064Z,98872.22
2023-01-31T00:53:49.304Z,98861.41
2023-01-31T00:58:52.128Z,98859.06
2023-01-31T01:03:56.808Z,98861.22
2023-01-31T01:09:02.729Z,98865.81
2023-01-31T01:14:05.709Z,98865.06
2023-01-31T01:19:15.294Z,98859.69
2023-01-31T01:24:19.691Z,98853.03
2023-01-31T01:29:22.850Z,98857.00
2023-01-31T01:34:25.362Z,98861.50
2023-01-31T01:39:30.470Z,98863.41
2023-01-31T01:44:42.203Z,98866.38
2023-01-31T01:49:46.861Z,98875.53
2023-01-31T01:54:58.742Z,98877.88
2023-01-31T02:00:19.181Z,98870.25
2023-01-31T02:05:31.365Z,98886.38
2023-01-31T02:10:52.366Z,98890.53
2023-01-31T02:15:55.651Z,98880.13
2023-01-31T02:21:22.695Z,98886.94
2023-01-31T02:26:44.365Z,98901.16
2023-01-31T02:32:01.115Z,98906.94
2023-01-31T02:37:22.687Z,98904.47
2023-01-31T02:42:50.188Z,98909.47
2023-01-31T02:48:08.128Z,98926.50
2023-01-31T02:53:29.477Z,98923.66
2023-01-31T02:58:37.302Z,98926.13
2023-01-31T03:03:41.718Z,98928.47
2023-01-31T03:08:45.741Z,98921.47
2023-01-31T03:14:03.664Z,98924.88
2023-01-31T03:19:30.884Z,98920.53
2023-01-31T03:24:34.864Z,98923.34
2023-01-31T03:29:39.776Z,98937.06
2023-01-31T03:34:45.102Z,98929.63
2023-01-31T03:40:08.936Z,98945.38
2023-01-31T03:45:28.604Z,98944.13
2023-01-31T03:50:44.831Z,98945.69
2023-01-31T03:55:57.030Z,98935.00
2023-01-31T04:01:05.641Z,98945.75
2023-01-31T04:06:10.832Z,98957.94
2023-01-31T04:11:15.063Z,98957.69
2023-01-31T04:16:17.548Z,98961.69
2023-01-31T04:21:20.023Z,98967.91
2023-01-31T04:26:23.030Z,98965.16
2023-01-31T04:31:25.782Z,98953.63
2023-01-31T04:36:28.369Z,98958.47
2023-01-31T04:41:31.842Z,98960.22
2023-01-31T04:46:34.855Z,98966.34
2023-01-31T04:51:37.648Z,98972.78
2023-01-31T04:56:40.091Z,98971.00
2023-01-31T05:01:42.510Z,98959.78
2023-01-31T05:06:45.021Z,98948.34
2023-01-31T05:11:47.539Z,98964.13
2023-01-31T05:16:49.927Z,98952.22
2023-01-31T05:21:55.532Z,98966.88
2023-01-31T05:26:59.719Z,98958.06
2023-01-31T05:32:04.111Z,98976.03
2023-01-31T05:37:07.188Z,98984.78
2023-01-31T05:42:09.687Z,98982.41
2023-01-31T05:47:12.316Z,98976.84
2023-01-31T05:52:14.762Z,98966.41
2023-01-31T05:57:18.148Z,98972.28
2023-01-31T06:02:20.645Z,98965.59
2023-01-31T06:07:24.049Z,98968.31
2023-01-31T06:12:26.593Z,98977.72
2023-01-31T06:17:30.457Z,98977.91
2023-01-31T06:22:34.168Z,98976.03
2023-01-31T06:27:36.729Z,98975.06
2023-01-31T06:32:39.368Z,98984.88
2023-01-31T06:37:41.826Z,98984.34
2023-01-31T06:42:44.204Z,98996.06
2023-01-31T06:47:46.745Z,99011.91
2023-01-31T06:52:49.105Z,99004.97
2023-01-31T06:57:51.725Z,99000.50
2023-01-31T07:02:55.927Z,98996.69
2023-01-31T07:07:58.989Z,98986.06
2023-01-31T07:13:02.161Z,98986.19
2023-01-31T07:18:06.282Z,98996.44
2023-01-31T07:23:09.452Z,98984.59
2023-01-31T07:28:13.047Z,98984.19
2023-01-31T07:33:15.694Z,98989.53
2023-01-31T07:38:18.125Z,98994.28
2023-01-31T07:43:21.106Z,98997.91
2023-01-31T07:48:23.692Z,98999.00
2023-01-31T07:53:28.730Z,99006.06
2023-01-31T07:58:31.187Z,98993.72
2023-01-31T08:03:34.536Z,99008.63
2023-01-31T08:08:37.889Z,99006.56
2023-01-31T08:13:40.716Z,99011.25
2023-01-31T08:18:43.204Z,99007.78
2023-01-31T08:23:46.945Z,99005.59
2023-01-31T08:28:51.326Z,99001.72
2023-01-31T08:33:54.779Z,99012.25
2023-01-31T08:38:57.727Z,99000.59
2023-01-31T08:44:03.471Z,98999.19
2023-01-31T08:49:07.403Z,98996.75
2023-01-31T08:54:10.602Z,98995.59
2023-01-31T08:59:13.406Z,98980.66
2023-01-31T09:04:15.850Z,98981.75
2023-01-31T09:09:18.333Z,98991.03
2023-01-31T09:14:20.879Z,98989.63
2023-01-31T09:19:23.698Z,98995.16
2023-01-31T09:24:26.249Z,98989.22
2023-01-31T09:29:30.169Z,98993.91
2023-01-31T09:34:33.363Z,98991.78
2023-01-31T09:39:36.545Z,98975.72
2023-01-31T09:44:43.317Z,98978.31
2023-01-31T09:49:52.923Z,98987.31
2023-01-31T09:54:55.569Z,98986.38
2023-01-31T10:00:09.640Z,98984.38
2023-01-31T10:05:37.403Z,98997.28
2023-01-31T10:10:47.260Z,99001.44
2023-01-31T10:16:25.967Z,98999.69
2023-01-31T10:21:41.057Z,99002.31
2023-01-31T10:26:46.425Z,98995.41
2023-01-31T10:31:59.028Z,98992.25
2023-01-31T10:37:16.581Z,98990.44
2023-01-31T10:42:31.829Z,98973.75
2023-01-31T10:48:01.224Z,98979.72
2023-01-31T10:53:18.755Z,98982.66
2023-01-31T10:58:23.132Z,98976.53
2023-01-31T11:03:26.318Z,98974.13
2023-01-31T11:08:46.107Z,98973.63
2023-01-31T11:14:05.862Z,98960.28
2023-01-31T11:19:34.915Z,98949.75
2023-01-31T11:24:41.399Z,98939.63
2023-01-31T11:29:50.828Z,98940.16
2023-01-31T11:35:06.566Z,98915.09
2023-01-31T11:40:23.177Z,98887.63
2023-01-31T11:45:36.192Z,98883.03
2023-01-31T11:50:53.566Z,98879.50
2023-01-31T11:56:01.509Z,98882.75
2023-01-31T12:01:16.707Z,98899.06
2023-01-31T12:06:35.847Z,98905.72
2023-01-31T12:11:38.341Z,98889.78
2023-01-31T12:16:41.637Z,98867.19
2023-01-31T12:21:44.076Z,98872.59
2023-01-31T12:26:52.255Z,98866.81
2023-01-31T12:32:22.383Z,98845.63
2023-01-31T12:37:27.597Z,98852.78
2023-01-31T12:42:51.063Z,98815.63
2023-01-31T12:48:15.801Z,98811.56
2023-01-31T12:53:37.593Z,98815.53
2023-01-31T12:59:15.563Z,98831.34
2023-01-31T13:04:41.006Z,98824.75
2023-01-31T13:09:46.109Z,98803.94
2023-01-31T13:14:56.738Z,98793.69
2023-01-31T13:20:04.716Z,98802.09
2023-01-31T13:25:43.406Z,98808.50
2023-01-31T13:31:09.861Z,98804.44
2023-01-31T13:36:38.967Z,98782.31
2023-01-31T13:41:41.525Z,98779.97
2023-01-31T13:47:13.691Z,98786.25
2023-01-31T13:52:32.266Z,98789.13
2023-01-31T13:57:52.495Z,98782.31
2023-01-31T14:03:13.490Z,98786.47
2023-01-31T14:08:49.952Z,98797.03
2023-01-31T14:14:21.798Z,98781.09
2023-01-31T14:19:24.144Z,98759.72
2023-01-31T14:24:49.946Z,98742.31
2023-01-31T14:30:01.022Z,98751.28
2023-01-31T14:35:26.335Z,98749.13
2023-01-31T14:41:05.900Z,98727.28
2023-01-31T14:46:41.150Z,98734.88
2023-01-31T14:52:18.567Z,98734.13
2023-01-31T14:57:21.989Z,98748.16
2023-01-31T15:02:36.378Z,98741.78
2023-01-31T15:07:59.125Z,98723.81
2023-01-31T15:13:01.592Z,98728.13
2023-01-31T15:18:14.489Z,98758.94
2023-01-31T15:23:22.650Z,98773.88
2023-01-31T15:28:32.613Z,98755.03
2023-01-31T15:33:44.951Z,98758.84
2023-01-31T15:38:56.907Z,98769.81
2023-01-31T15:44:13.207Z,98761.44
2023-01-31T15:49:39.894Z,98757.47
2023-01-31T15:54:56.236Z,98748.06
2023-01-31T15:59:59.077Z,98749.53
2023-01-31T16:05:04.939Z,98771.31
2023-01-31T16:10:12.873Z,98757.00
2023-01-31T16:15:25.627Z,98771.47
2023-01-31T16:20:55.675Z,98767.03
2023-01-31T16:26:01.257Z,98767.41
2023-01-31T16:31:16.642Z,98776.75
2023-01-31T16:36:53.085Z,98777.56
2023-01-31T16:41:58.355Z,98781.22
2023-01-31T16:47:00.988Z,98787.84
2023-01-31T16:52:28.418Z,98785.00
2023-01-31T16:57:37.601Z,98780.81
2023-01-31T17:02:42.248Z,98794.31
2023-01-31T17:07:46.214Z,98781.75
2023-01-31T17:12:50.221Z,98790.13
2023-01-31T17:17:52.636Z,98795.84
2023-01-31T17:23:03.015Z,98796.69
2023-01-31T17:28:07.042Z,98795.41
2023-01-31T17:33:15.923Z,98784.84
2023-01-31T17:38:19.126Z,98791.00
2023-01-31T17:43:23.039Z,98774.66
2023-01-31T17:48:26.996Z,98762.22
2023-01-31T17:53:34.514Z,98774.00
2023-01-31T17:58:39.801Z,98761.91
2023-01-31T18:03:43.113Z,98753.66
2023-01-31T18:08:45.916Z,98770.03
2023-01-31T18:13:48.513Z,98744.31
2023-01-31T18:18:52.402Z,98734.50
2023-01-31T18:23:57.428Z,98738.41
2023-01-31T18:29:00.083Z,98733.78
2023-01-31T18:34:02.748Z,98731.41
2023-01-31T18:39:05.952Z,98735.97
2023-01-31T18:44:08.734Z,98750.03
2023-01-31T18:49:11.235Z,98736.22
2023-01-31T18:54:13.839Z,98737.66
2023-01-31T18:59:16.276Z,98750.91
2023-01-31T19:04:19.127Z,98756.53
2023-01-31T19:09:22.541Z,98759.44
2023-01-31T19:14:25.335Z,98737.63
2023-01-31T19:19:27.908Z,98735.69
2023-01-31T19:24:30.402Z,98746.78
2023-01-31T19:29:32.959Z,98746.03
2023-01-31T19:34:36.621Z,98745.59
2023-01-31T19:39:39.189Z,98764.91
2023-01-31T19:44:41.645Z,98753.91
2023-01-31T19:49:44.070Z,98745.38
2023-01-31T19:54:46.489Z,98757.66
2023-01-31T19:59:49.137Z,98725.63
2023-01-31T20:04:53.035Z,98711.22
2023-01-31T20:09:55.427Z,98711.63
2023-01-31T20:14:57.924Z,98709.78
2023-01-31T20:20:01.545Z,98711.47
2023-01-31T20:25:05.277Z,98722.28
2023-01-31T20:30:08.510Z,98730.91
2023-01-31T20:35:11.162Z,98737.13
2023-01-31T20:40:13.727Z,98736.84
2023-01-31T20:45:16.238Z,98753.22
2023-01-31T20:50:18.889Z,98750.06
2023-01-31T20:55:21.651Z,98747.94
2023-01-31T21:00:24.795Z,98749.66
2023-01-31T21:05:27.314Z,98744.03
2023-01-31T21:10:30.779Z,98722.09
2023-01-31T21:15:33.603Z,98707.09
2023-01-31T21:20:36.451Z,98698.88
2023-01-31T21:25:39.282Z,98684.06
2023-01-31T21:30:41.937Z,98676.16
2023-01-31T21:35:45.127Z,98674.50
2023-01-31T21:40:47.625Z,98695.41
2023-01-31T21:45:50.238Z,98696.53
2023-01-31T21:50:52.889Z,98694.69
2023-01-31T21:56:11.811Z,98697.47
2023-01-31T22:01:17.944Z,98714.44
2023-01-31T22:06:31.553Z,98707.09
2023-01-31T22:11:35.572Z,98726.19
2023-01-31T22:16:39.026Z,98739.31
2023-01-31T22:21:42.899Z,98757.19
2023-01-31T22:26:45.886Z,98751.00
2023-01-31T22:31:48.516Z,98755.66
2023-01-31T22:36:51.098Z,98764.16
2023-01-31T22:41:53.606Z,98756.44
2023-01-31T22:46:56.093Z,98758.56
2023-01-31T22:51:58.564Z,98760.19
2023-01-31T22:57:01.073Z,98753.75
2023-01-31T23:02:03.603Z,98741.97
2023-01-31T23:07:06.460Z,98734.34
2023-01-31T23:12:09.009Z,98725.34
2023-01-31T23:17:30.143Z,98710.31
2023-01-31T23:22:33.101Z,98707.50
2023-01-31T23:27:36.268Z,98693.50
2023-01-31T23:32:42.140Z,98692.94
2023-01-31T23:37:45.444Z,98705.13
2023-01-31T23:42:47.907Z,98691.25
2023-01-31T23:47:50.572Z,98685.81
2023-01-31T23:52:53.505Z,98675.78
2023-01-31T23:57:55.946Z,98679.63
